sensor_id;sensor_type;location;lat;lon;timestamp;P1;P2;P0
72918;PMS7003;61063;55.700;26.994;2023-02-01T00:01:45;1.1;0.4;0.1
72918;PMS7003;61063;55.700;26.994;2023-02-01T00:06:25;0.6;0.2;0
72918;PMS7003;61063;55.700;26.994;2023-02-01T00:11:23;1.2;0.4;0.3
72918;PMS7003;61063;55.700;26.994;2023-02-01T00:16:37;1.4;0.5;0.3
72918;PMS7003;61063;55.700;26.994;2023-02-01T00:22:01;0.8;0.4;0.2
72918;PMS7003;61063;55.700;26.994;2023-02-01T00:26:25;1.6;0.6;0.4
72918;PMS7003;61063;55.700;26.994;2023-02-01T00:31:45;1.4;0.8;0.6
72918;PMS7003;61063;55.700;26.994;2023-02-01T00:36:49;1.5;0.8;0.5
72918;PMS7003;61063;55.700;26.994;2023-02-01T00:41:13;0.8;0.5;0.3
72918;PMS7003;61063;55.700;26.994;2023-02-01T00:46:23;1.4;0.3;0.2
72918;PMS7003;61063;55.700;26.994;2023-02-01T00:51:14;1.8;0.5;0.4
72918;PMS7003;61063;55.700;26.994;2023-02-01T00:56:59;1.5;0.6;0.4
72918;PMS7003;61063;55.700;26.994;2023-02-01T01:01:59;1.5;0.6;0.3
72918;PMS7003;61063;55.700;26.994;2023-02-01T01:06:37;1.7;1.1;0.7
72918;PMS7003;61063;55.700;26.994;2023-02-01T01:12:01;1.1;0.7;0.5
72918;PMS7003;61063;55.700;26.994;2023-02-01T01:17:03;1.6;0.6;0.4
72918;PMS7003;61063;55.700;26.994;2023-02-01T01:21:37;1.7;0.7;0.5
72918;PMS7003;61063;55.700;26.994;2023-02-01T01:26:39;1.7;0.8;0.5
72918;PMS7003;61063;55.700;26.994;2023-02-01T01:32:01;1;0.3;0.1
72918;PMS7003;61063;55.700;26.994;2023-02-01T01:36:13;1.7;0.7;0.4
72918;PMS7003;61063;55.700;26.994;2023-02-01T01:41:29;1.4;0.2;0.2
72918;PMS7003;61063;55.700;26.994;2023-02-01T01:46:26;1.4;0.6;0.4
72918;PMS7003;61063;55.700;26.994;2023-02-01T01:51:51;1.2;0.5;0.4
72918;PMS7003;61063;55.700;26.994;2023-02-01T01:56:50;1.1;0.2;0.1
72918;PMS7003;61063;55.700;26.994;2023-02-01T02:01:35;1.5;0.6;0.3
72918;PMS7003;61063;55.700;26.994;2023-02-01T02:07:02;1;0.6;0.5
72918;PMS7003;61063;55.700;26.994;2023-02-01T02:11:37;1.1;0.6;0.3
72918;PMS7003;61063;55.700;26.994;2023-02-01T02:16:54;1.8;0.7;0.5
72918;PMS7003;61063;55.700;26.994;2023-02-01T02:22:07;1.6;0.8;0.4
72918;PMS7003;61063;55.700;26.994;2023-02-01T02:27:00;1.7;0.6;0.4
72918;PMS7003;61063;55.700;26.994;2023-02-01T02:31:41;1.1;0.9;0.5
72918;PMS7003;61063;55.700;26.994;2023-02-01T02:36:41;1.1;0.6;0.5
72918;PMS7003;61063;55.700;26.994;2023-02-01T02:41:41;1.1;0.6;0.4
72918;PMS7003;61063;55.700;26.994;2023-02-01T02:46:24;1.7;0.7;0.5
72918;PMS7003;61063;55.700;26.994;2023-02-01T02:51:50;2;0.7;0.4
72918;PMS7003;61063;55.700;26.994;2023-02-01T02:56:37;1;0.4;0.3
72918;PMS7003;61063;55.700;26.994;2023-02-01T03:01:59;2.5;0.9;0.6
72918;PMS7003;61063;55.700;26.994;2023-02-01T03:06:37;1.2;0.7;0.6
72918;PMS7003;61063;55.700;26.994;2023-02-01T03:12:01;1.9;0.7;0.6
72918;PMS7003;61063;55.700;26.994;2023-02-01T03:16:14;2.1;1;0.7
72918;PMS7003;61063;55.700;26.994;2023-02-01T03:21:52;2.1;1.1;0.8
72918;PMS7003;61063;55.700;26.994;2023-02-01T03:26:36;2.6;0.8;0.7
72918;PMS7003;61063;55.700;26.994;2023-02-01T03:31:27;2;1;0.6
72918;PMS7003;61063;55.700;26.994;2023-02-01T03:37:01;2.7;1.4;0.9
72918;PMS7003;61063;55.700;26.994;2023-02-01T03:41:48;2.8;1.4;1.2
72918;PMS7003;61063;55.700;26.994;2023-02-01T03:47:03;3.1;1.5;1
72918;PMS7003;61063;55.700;26.994;2023-02-01T03:51:37;3.3;1.5;1.2
72918;PMS7003;61063;55.700;26.994;2023-02-01T03:56:44;2.4;1.7;1.2
72918;PMS7003;61063;55.700;26.994;2023-02-01T04:01:41;3.4;2;1.4
72918;PMS7003;61063;55.700;26.994;2023-02-01T04:06:49;2.5;1.7;1.4
72918;PMS7003;61063;55.700;26.994;2023-02-01T04:11:23;3.3;1.4;1
72918;PMS7003;61063;55.700;26.994;2023-02-01T04:16:49;1.8;1.1;0.8
72918;PMS7003;61063;55.700;26.994;2023-02-01T04:21:39;2.4;1.4;1
72918;PMS7003;61063;55.700;26.994;2023-02-01T04:26:49;2.5;1.4;1
72918;PMS7003;61063;55.700;26.994;2023-02-01T04:31:57;2.5;1.4;1.1
72918;PMS7003;61063;55.700;26.994;2023-02-01T04:37:01;2.7;1.4;1.1
72918;PMS7003;61063;55.700;26.994;2023-02-01T04:41:59;2.3;1.4;1
72918;PMS7003;61063;55.700;26.994;2023-02-01T04:46:47;2.9;1.5;1.1
72918;PMS7003;61063;55.700;26.994;2023-02-01T04:52:01;2.6;1.7;1.1
72918;PMS7003;61063;55.700;26.994;2023-02-01T04:56:25;2.6;1.7;1.3
72918;PMS7003;61063;55.700;26.994;2023-02-01T05:01:47;3.3;2;1.6
72918;PMS7003;61063;55.700;26.994;2023-02-01T05:06:23;2.9;1.6;1.3
72918;PMS7003;61063;55.700;26.994;2023-02-01T05:11:49;3.1;1.9;1.4
72918;PMS7003;61063;55.700;26.994;2023-02-01T05:16:39;2.8;1.8;1.5
72918;PMS7003;61063;55.700;26.994;2023-02-01T05:22:05;3.1;2;1.5
72918;PMS7003;61063;55.700;26.994;2023-02-01T05:26:13;3.6;2.1;1.6
72918;PMS7003;61063;55.700;26.994;2023-02-01T05:31:57;3.3;1.9;1.4
72918;PMS7003;61063;55.700;26.994;2023-02-01T05:36:49;3;2.1;1.6
72918;PMS7003;61063;55.700;26.994;2023-02-01T05:41:41;3;2.2;1.8
72918;PMS7003;61063;55.700;26.994;2023-02-01T05:47:03;4;2.8;2.1
72918;PMS7003;61063;55.700;26.994;2023-02-01T05:51:13;3.1;2;1.4
72918;PMS7003;61063;55.700;26.994;2023-02-01T05:57:03;2.8;1.8;1.4
72918;PMS7003;61063;55.700;26.994;2023-02-01T06:01:23;3.9;2.3;1.8
72918;PMS7003;61063;55.700;26.994;2023-02-01T06:06:25;2.9;2.1;1.6
72918;PMS7003;61063;55.700;26.994;2023-02-01T06:11:13;4.7;2.5;2.1
72918;PMS7003;61063;55.700;26.994;2023-02-01T06:16:59;4;2.5;1.9
72918;PMS7003;61063;55.700;26.994;2023-02-01T06:21:23;3.6;2.5;2
72918;PMS7003;61063;55.700;26.994;2023-02-01T06:27:01;3.8;2.6;2.1
72918;PMS7003;61063;55.700;26.994;2023-02-01T06:31:37;3.7;2.3;1.7
72918;PMS7003;61063;55.700;26.994;2023-02-01T06:36:13;3.5;2.7;2
72918;PMS7003;61063;55.700;26.994;2023-02-01T06:41:37;3.8;2.9;2.2
72918;PMS7003;61063;55.700;26.994;2023-02-01T06:46:39;3.7;2.3;1.6
72918;PMS7003;61063;55.700;26.994;2023-02-01T06:51:47;4.1;3.4;2.7
72918;PMS7003;61063;55.700;26.994;2023-02-01T06:56:13;8.9;7;5.2
72918;PMS7003;61063;55.700;26.994;2023-02-01T07:01:13;9.7;7.1;5.3
72918;PMS7003;61063;55.700;26.994;2023-02-01T07:06:13;7;5.5;4.1
72918;PMS7003;61063;55.700;26.994;2023-02-01T07:12:03;5.8;4.5;3.4
72918;PMS7003;61063;55.700;26.994;2023-02-01T07:16:39;6.7;4.7;3.6
72918;PMS7003;61063;55.700;26.994;2023-02-01T07:21:39;6.6;3.8;2.6
72918;PMS7003;61063;55.700;26.994;2023-02-01T07:26:37;5;3.3;2.5
72918;PMS7003;61063;55.700;26.994;2023-02-01T07:31:29;4.7;3.1;2.4
72918;PMS7003;61063;55.700;26.994;2023-02-01T07:36:41;6.2;4.7;3.7
72918;PMS7003;61063;55.700;26.994;2023-02-01T07:41:29;5.8;4.3;3.3
72918;PMS7003;61063;55.700;26.994;2023-02-01T07:47:07;6.6;5;3.8
72918;PMS7003;61063;55.700;26.994;2023-02-01T07:52:03;5.6;4.5;3.5
72918;PMS7003;61063;55.700;26.994;2023-02-01T07:56:39;5.9;3.9;2.7
72918;PMS7003;61063;55.700;26.994;2023-02-01T08:02:01;6.3;5.1;4.1
72918;PMS7003;61063;55.700;26.994;2023-02-01T08:07:01;7.2;5.9;4.3
72918;PMS7003;61063;55.700;26.994;2023-02-01T08:11:37;6.3;5.6;4.4
72918;PMS7003;61063;55.700;26.994;2023-02-01T08:16:29;7.4;5.7;4.3
72918;PMS7003;61063;55.700;26.994;2023-02-01T08:22:05;5.1;4.3;3
72918;PMS7003;61063;55.700;26.994;2023-02-01T08:26:27;6.6;4.8;3.3
72918;PMS7003;61063;55.700;26.994;2023-02-01T08:31:41;6.9;5.6;4.5
72918;PMS7003;61063;55.700;26.994;2023-02-01T08:36:52;5.6;4;3.2
72918;PMS7003;61063;55.700;26.994;2023-02-01T08:41:49;5.1;3.7;3.1
72918;PMS7003;61063;55.700;26.994;2023-02-01T08:46:53;4.9;3.7;2.9
72918;PMS7003;61063;55.700;26.994;2023-02-01T08:51:23;5.5;4.3;3.5
72918;PMS7003;61063;55.700;26.994;2023-02-01T08:56:29;4.9;3.9;3.2
72918;PMS7003;61063;55.700;26.994;2023-02-01T09:01:13;5.3;4.4;3.4
72918;PMS7003;61063;55.700;26.994;2023-02-01T09:06:53;5.8;4.9;4.1
72918;PMS7003;61063;55.700;26.994;2023-02-01T09:11:14;6.5;4.8;4
72918;PMS7003;61063;55.700;26.994;2023-02-01T09:16:49;6.5;5;4
72918;PMS7003;61063;55.700;26.994;2023-02-01T09:21:13;6.3;5.3;3.9
72918;PMS7003;61063;55.700;26.994;2023-02-01T09:27:02;6.6;5.4;4.3
72918;PMS7003;61063;55.700;26.994;2023-02-01T09:31:47;5.2;3.4;2.3
72918;PMS7003;61063;55.700;26.994;2023-02-01T09:37:01;7.2;5.6;4.4
72918;PMS7003;61063;55.700;26.994;2023-02-01T09:42:06;5.2;4.3;3.6
72918;PMS7003;61063;55.700;26.994;2023-02-01T09:46:37;5;3.8;3
72918;PMS7003;61063;55.700;26.994;2023-02-01T09:52:04;6.5;5;4.1
72918;PMS7003;61063;55.700;26.994;2023-02-01T09:56:14;5.8;4.3;3.3
72918;PMS7003;61063;55.700;26.994;2023-02-01T10:01:47;4.6;4.2;3.4
72918;PMS7003;61063;55.700;26.994;2023-02-01T10:06:18;5.1;4;3.3
72918;PMS7003;61063;55.700;26.994;2023-02-01T10:12:00;5.8;4.4;3.6
72918;PMS7003;61063;55.700;26.994;2023-02-01T10:16:24;5.3;3.9;3.1
72918;PMS7003;61063;55.700;26.994;2023-02-01T10:21:42;6;4.4;3.4
72918;PMS7003;61063;55.700;26.994;2023-02-01T10:26:42;4.4;3.7;2.8
72918;PMS7003;61063;55.700;26.994;2023-02-01T10:31:47;5.8;4.1;3.3
72918;PMS7003;61063;55.700;26.994;2023-02-01T10:37:09;5.1;4.4;3.4
72918;PMS7003;61063;55.700;26.994;2023-02-01T10:42:03;5.8;4.1;3.1
72918;PMS7003;61063;55.700;26.994;2023-02-01T10:47:08;5.4;4.4;3.7
72918;PMS7003;61063;55.700;26.994;2023-02-01T10:51:42;5.4;4.4;3.5
72918;PMS7003;61063;55.700;26.994;2023-02-01T10:56:53;5.6;4.3;3.7
72918;PMS7003;61063;55.700;26.994;2023-02-01T11:01:16;4.4;3.8;3.1
72918;PMS7003;61063;55.700;26.994;2023-02-01T11:07:06;6.1;4.4;3.6
72918;PMS7003;61063;55.700;26.994;2023-02-01T11:11:29;5.4;4.6;3.8
72918;PMS7003;61063;55.700;26.994;2023-02-01T11:16:52;5.5;4.7;3.8
72918;PMS7003;61063;55.700;26.994;2023-02-01T11:21:52;6.8;5.5;4.4
72918;PMS7003;61063;55.700;26.994;2023-02-01T11:27:04;6.9;5.7;4.5
72918;PMS7003;61063;55.700;26.994;2023-02-01T11:32:01;7.2;4.8;3.9
72918;PMS7003;61063;55.700;26.994;2023-02-01T11:36:49;6.6;5.8;4.8
72918;PMS7003;61063;55.700;26.994;2023-02-01T11:42:04;8.3;6.4;5.2
72918;PMS7003;61063;55.700;26.994;2023-02-01T11:46:16;5.5;4.2;3.4
72918;PMS7003;61063;55.700;26.994;2023-02-01T11:51:54;8.3;6.7;5.3
72918;PMS7003;61063;55.700;26.994;2023-02-01T11:56:26;7.2;6.2;5.1
72918;PMS7003;61063;55.700;26.994;2023-02-01T12:01:56;6.5;5.3;4.4
72918;PMS7003;61063;55.700;26.994;2023-02-01T12:06:50;10.1;8.5;6.9
72918;PMS7003;61063;55.700;26.994;2023-02-01T12:12:06;9.5;8.2;6.4
72918;PMS7003;61063;55.700;26.994;2023-02-01T12:16:17;8.2;6.9;5.6
72918;PMS7003;61063;55.700;26.994;2023-02-01T12:22:14;7.5;6.6;5.3
72918;PMS7003;61063;55.700;26.994;2023-02-01T12:26:22;8.7;6.7;5.2
72918;PMS7003;61063;55.700;26.994;2023-02-01T12:31:20;6.9;5.8;4.7
72918;PMS7003;61063;55.700;26.994;2023-02-01T12:36:44;7.6;6.8;5.2
72918;PMS7003;61063;55.700;26.994;2023-02-01T12:41:18;7.1;5.9;4.8
72918;PMS7003;61063;55.700;26.994;2023-02-01T12:46:54;7.1;6.3;5.1
72918;PMS7003;61063;55.700;26.994;2023-02-01T12:51:14;8.6;7.5;6.3
72918;PMS7003;61063;55.700;26.994;2023-02-01T12:57:09;8.8;7.6;6.2
72918;PMS7003;61063;55.700;26.994;2023-02-01T13:01:15;7.2;6.6;5.2
72918;PMS7003;61063;55.700;26.994;2023-02-01T13:07:05;7.5;6.6;5.5
72918;PMS7003;61063;55.700;26.994;2023-02-01T13:11:42;6.2;5.5;4.5
72918;PMS7003;61063;55.700;26.994;2023-02-01T13:16:52;6.6;6.1;4.9
72918;PMS7003;61063;55.700;26.994;2023-02-01T13:21:42;6.1;4.2;3.6
72918;PMS7003;61063;55.700;26.994;2023-02-01T13:26:27;10.1;8.4;6.3
72918;PMS7003;61063;55.700;26.994;2023-02-01T13:31:30;17.4;13.7;9.8
72918;PMS7003;61063;55.700;26.994;2023-02-01T13:36:20;23.4;18;12.4
72918;PMS7003;61063;55.700;26.994;2023-02-01T13:42:01;23.2;18.3;12.8
72918;PMS7003;61063;55.700;26.994;2023-02-01T13:47:08;9.7;7.4;5.9
72918;PMS7003;61063;55.700;26.994;2023-02-01T13:51:40;6.2;5.3;4.4
72918;PMS7003;61063;55.700;26.994;2023-02-01T13:56:43;6;5;3.9
72918;PMS7003;61063;55.700;26.994;2023-02-01T14:02:35;5;3.9;3.4
72918;PMS7003;61063;55.700;26.994;2023-02-01T14:06:41;5.4;4.7;3.6
72918;PMS7003;61063;55.700;26.994;2023-02-01T14:11:46;4.9;3.9;3.2
72918;PMS7003;61063;55.700;26.994;2023-02-01T14:21:30;4.3;3.1;2.6
72918;PMS7003;61063;55.700;26.994;2023-02-01T14:26:23;3.7;2.9;2.4
72918;PMS7003;61063;55.700;26.994;2023-02-01T14:31:40;3.4;2.3;1.8
72918;PMS7003;61063;55.700;26.994;2023-02-01T14:37:03;3.2;2.2;1.8
72918;PMS7003;61063;55.700;26.994;2023-02-01T14:41:54;3.9;2.6;2
72918;PMS7003;61063;55.700;26.994;2023-02-01T14:47:45;3.5;3.1;2.5
72918;PMS7003;61063;55.700;26.994;2023-02-01T14:52:05;9.6;8.5;6.6
72918;PMS7003;61063;55.700;26.994;2023-02-01T14:57:08;6.5;5.6;4.6
72918;PMS7003;61063;55.700;26.994;2023-02-01T15:01:39;2.7;2;1.7
72918;PMS7003;61063;55.700;26.994;2023-02-01T15:06:23;4.6;3.4;2.8
72918;PMS7003;61063;55.700;26.994;2023-02-01T15:12:02;3.7;3.2;2.4
72918;PMS7003;61063;55.700;26.994;2023-02-01T15:16:27;7.1;5.8;4.6
72918;PMS7003;61063;55.700;26.994;2023-02-01T15:21:43;31.3;25.9;18
72918;PMS7003;61063;55.700;26.994;2023-02-01T15:26:27;10;9.2;7.2
72918;PMS7003;61063;55.700;26.994;2023-02-01T15:31:50;13.2;11.3;9.4
72918;PMS7003;61063;55.700;26.994;2023-02-01T15:36:51;36.1;30.4;22.3
72918;PMS7003;61063;55.700;26.994;2023-02-01T15:41:14;28.7;25.4;19.3
72918;PMS7003;61063;55.700;26.994;2023-02-01T15:47:06;28.6;26;20.2
72918;PMS7003;61063;55.700;26.994;2023-02-01T15:51:14;19.1;16.9;13.6
72918;PMS7003;61063;55.700;26.994;2023-02-01T15:56:52;11.6;9.8;8
72918;PMS7003;61063;55.700;26.994;2023-02-01T16:01:29;10.8;9.2;7.2
72918;PMS7003;61063;55.700;26.994;2023-02-01T16:06:54;12.7;10.4;8.3
72918;PMS7003;61063;55.700;26.994;2023-02-01T16:11:40;9.8;8.5;7
72918;PMS7003;61063;55.700;26.994;2023-02-01T16:16:13;8.7;7.9;6.7
72918;PMS7003;61063;55.700;26.994;2023-02-01T16:21:47;10.4;8.4;6.8
72918;PMS7003;61063;55.700;26.994;2023-02-01T16:26:49;12.1;10.5;8.2
72918;PMS7003;61063;55.700;26.994;2023-02-01T16:32:04;24.9;21.6;16.5
72918;PMS7003;61063;55.700;26.994;2023-02-01T16:36:37;10.4;9.3;7.5
72918;PMS7003;61063;55.700;26.994;2023-02-01T16:42:04;10;8.4;6.6
72918;PMS7003;61063;55.700;26.994;2023-02-01T16:46:26;9.5;8;5.8
72918;PMS7003;61063;55.700;26.994;2023-02-01T16:51:39;8.5;7.2;5.8
72918;PMS7003;61063;55.700;26.994;2023-02-01T16:56:14;8.1;6.7;5.5
72918;PMS7003;61063;55.700;26.994;2023-02-01T17:01:35;7.7;6.2;4.9
72918;PMS7003;61063;55.700;26.994;2023-02-01T17:06:49;7.2;5.5;4.3
72918;PMS7003;61063;55.700;26.994;2023-02-01T17:11:49;6.3;5.4;4.3
72918;PMS7003;61063;55.700;26.994;2023-02-01T17:16:51;4.7;4.1;3.3
72918;PMS7003;61063;55.700;26.994;2023-02-01T17:22:03;6;4.6;3.5
72918;PMS7003;61063;55.700;26.994;2023-02-01T17:27:01;6;4.5;3.4
72918;PMS7003;61063;55.700;26.994;2023-02-01T17:31:38;5.5;4.4;3.4
72918;PMS7003;61063;55.700;26.994;2023-02-01T17:37:04;6.4;4.9;3.9
72918;PMS7003;61063;55.700;26.994;2023-02-01T17:41:41;5.8;3.9;2.9
72918;PMS7003;61063;55.700;26.994;2023-02-01T17:46:49;4.7;3.8;3
72918;PMS7003;61063;55.700;26.994;2023-02-01T17:51:14;4.1;2.5;1.9
72918;PMS7003;61063;55.700;26.994;2023-02-01T17:56:51;3.9;3;2.4
72918;PMS7003;61063;55.700;26.994;2023-02-01T18:01:41;3.9;2.9;2.3
72918;PMS7003;61063;55.700;26.994;2023-02-01T18:07:03;4.1;3.1;2.5
72918;PMS7003;61063;55.700;26.994;2023-02-01T18:11:39;4;2.8;2.2
72918;PMS7003;61063;55.700;26.994;2023-02-01T18:17:05;3;2.4;1.8
72918;PMS7003;61063;55.700;26.994;2023-02-01T18:22:03;2.9;2.2;1.7
72918;PMS7003;61063;55.700;26.994;2023-02-01T18:26:15;2.8;2.2;1.9
72918;PMS7003;61063;55.700;26.994;2023-02-01T18:31:43;3.3;2.3;2
72918;PMS7003;61063;55.700;26.994;2023-02-01T18:36:13;3.4;2.4;1.9
72918;PMS7003;61063;55.700;26.994;2023-02-01T18:41:47;3.1;2.1;1.6
72918;PMS7003;61063;55.700;26.994;2023-02-01T18:46:13;3.8;2.8;2.2
72918;PMS7003;61063;55.700;26.994;2023-02-01T18:51:37;3;2.5;2
72918;PMS7003;61063;55.700;26.994;2023-02-01T18:56:39;3;2.4;2
72918;PMS7003;61063;55.700;26.994;2023-02-01T19:02:01;3.1;2.3;1.8
72918;PMS7003;61063;55.700;26.994;2023-02-01T19:06:59;2.7;2.1;1.7
72918;PMS7003;61063;55.700;26.994;2023-02-01T19:11:47;2.3;1.5;1.2
72918;PMS7003;61063;55.700;26.994;2023-02-01T19:16:37;2.7;1.9;1.4
72918;PMS7003;61063;55.700;26.994;2023-02-01T19:21:13;2.4;1.7;1.2
72918;PMS7003;61063;55.700;26.994;2023-02-01T19:26:25;2.7;1.6;1.2
72918;PMS7003;61063;55.700;26.994;2023-02-01T19:31:27;2.2;1.9;1.5
72918;PMS7003;61063;55.700;26.994;2023-02-01T19:37:03;3.1;1.9;1.5
72918;PMS7003;61063;55.700;26.994;2023-02-01T19:42:03;2.7;2;1.5
72918;PMS7003;61063;55.700;26.994;2023-02-01T19:46:27;1.8;1.4;1.2
72918;PMS7003;61063;55.700;26.994;2023-02-01T19:51:55;2.8;2.1;1.6
72918;PMS7003;61063;55.700;26.994;2023-02-01T19:57:03;2.5;1.9;1.4
72918;PMS7003;61063;55.700;26.994;2023-02-01T20:01:41;3.3;2.4;2.2
72918;PMS7003;61063;55.700;26.994;2023-02-01T20:06:21;3;2.6;2.1
72918;PMS7003;61063;55.700;26.994;2023-02-01T20:11:47;3.4;2.6;2.4
72918;PMS7003;61063;55.700;26.994;2023-02-01T20:16:23;4.8;3.1;2.6
72918;PMS7003;61063;55.700;26.994;2023-02-01T20:21:25;4.7;3.5;2.7
72918;PMS7003;61063;55.700;26.994;2023-02-01T20:26:27;4;3.2;2.5
72918;PMS7003;61063;55.700;26.994;2023-02-01T20:31:49;4.5;3.8;3.2
72918;PMS7003;61063;55.700;26.994;2023-02-01T20:36:49;5;4.1;3.3
72918;PMS7003;61063;55.700;26.994;2023-02-01T20:41:47;4.9;3.7;3.1
72918;PMS7003;61063;55.700;26.994;2023-02-01T20:47:03;3.8;3.4;2.8
72918;PMS7003;61063;55.700;26.994;2023-02-01T20:51:12;3.2;2.5;2.2
72918;PMS7003;61063;55.700;26.994;2023-02-01T20:56:43;3.3;2.9;2.4
72918;PMS7003;61063;55.700;26.994;2023-02-01T21:01:29;2.7;1.9;1.6
72918;PMS7003;61063;55.700;26.994;2023-02-01T21:06:51;2.9;2.5;2.1
72918;PMS7003;61063;55.700;26.994;2023-02-01T21:11:47;3.3;2.6;2.1
72918;PMS7003;61063;55.700;26.994;2023-02-01T21:16:39;2.4;2.1;1.8
72918;PMS7003;61063;55.700;26.994;2023-02-01T21:21:49;4.4;3.2;2.7
72918;PMS7003;61063;55.700;26.994;2023-02-01T21:26:51;3.6;2.8;2.5
72918;PMS7003;61063;55.700;26.994;2023-02-01T21:31:53;2.3;2;1.5
72918;PMS7003;61063;55.700;26.994;2023-02-01T21:36:21;2.4;1.4;1.1
72918;PMS7003;61063;55.700;26.994;2023-02-01T21:42:03;1.4;0.8;0.7
72918;PMS7003;61063;55.700;26.994;2023-02-01T21:46:13;0.8;0.6;0.4
72918;PMS7003;61063;55.700;26.994;2023-02-01T21:51:49;1.1;0.4;0.3
72918;PMS7003;61063;55.700;26.994;2023-02-01T21:56:27;1.2;0.5;0.4
72918;PMS7003;61063;55.700;26.994;2023-02-01T22:01:51;0.8;0.6;0.3
72918;PMS7003;61063;55.700;26.994;2023-02-01T22:06:21;0.6;0.5;0.3
72918;PMS7003;61063;55.700;26.994;2023-02-01T22:11:47;1;0.2;0.1
72918;PMS7003;61063;55.700;26.994;2023-02-01T22:16:49;0.6;0.4;0.3
72918;PMS7003;61063;55.700;26.994;2023-02-01T22:22:05;0.6;0.4;0.2
72918;PMS7003;61063;55.700;26.994;2023-02-01T22:27:05;0.5;0.2;0.2
72918;PMS7003;61063;55.700;26.994;2023-02-01T22:31:35;0.4;0.1;0
72918;PMS7003;61063;55.700;26.994;2023-02-01T22:37:01;0.5;0.2;0.1
72918;PMS7003;61063;55.700;26.994;2023-02-01T22:41:13;0.1;0;0
72918;PMS7003;61063;55.700;26.994;2023-02-01T22:46:47;0.4;0.1;0
72918;PMS7003;61063;55.700;26.994;2023-02-01T22:51:26;0.4;0;0
72918;PMS7003;61063;55.700;26.994;2023-02-01T22:56:51;0.5;0.1;0
72918;PMS7003;61063;55.700;26.994;2023-02-01T23:01:26;0.4;0;0
72918;PMS7003;61063;55.700;26.994;2023-02-01T23:06:45;0.1;0;0
72918;PMS7003;61063;55.700;26.994;2023-02-01T23:11:47;0.2;0.1;0.1
72918;PMS7003;61063;55.700;26.994;2023-02-01T23:16:57;0.5;0.3;0.1
72918;PMS7003;61063;55.700;26.994;2023-02-01T23:21:59;0.7;0.1;0.1
72918;PMS7003;61063;55.700;26.994;2023-02-01T23:26:22;0.4;0.1;0.1
72918;PMS7003;61063;55.700;26.994;2023-02-01T23:31:59;0.2;0.2;0
72918;PMS7003;61063;55.700;26.994;2023-02-01T23:36:39;0.6;0.1;0
72918;PMS7003;61063;55.700;26.994;2023-02-01T23:41:45;0.5;0.3;0
72918;PMS7003;61063;55.700;26.994;2023-02-01T23:46:13;0.6;0.2;0.1
72918;PMS7003;61063;55.700;26.994;2023-02-01T23:51:37;0.6;0.2;0.1
72918;PMS7003;61063;55.700;26.994;2023-02-01T23:56:38;0.5;0.1;0
